Time;durP1;ratioP1;P1;durP2;ratioP2;P2;SDS_P1;SDS_P2;PMS_P1;PMS_P2;Temp;Humidity;BMP_temperature;BMP_pressure;BME280_temperature;BME280_humidity;BME280_pressure;Samples;Min_cycle;Max_cycle;Signal;HPM_P1;HPM_P2
2022/01/28 00:00:30;;;;;;;26.92;2.85;;;;;;;;;;4995681;28;20048;-78
2022/01/28 00:03:05;;;;;;;25.27;3.03;;;;;;;;;;5010938;28;20137;-78
2022/01/28 00:05:39;;;;;;;23.42;2.53;;;;;;;;;;5010788;28;20550;-78
2022/01/28 00:08:07;;;;;;;20.40;2.28;;;;;;;;;;5010888;28;20570;-78
2022/01/28 00:10:33;;;;;;;25.98;2.95;;;;;;;;;;4994086;28;20488;-78
2022/01/28 00:13:21;;;;;;;19.30;2.90;;;;;;;;;;5010214;28;20116;-78
2022/01/28 00:18:56;;;;;;;21.55;2.88;;;;;;;;;;4990922;28;20121;-78
2022/01/28 00:38:05;;;;;;;19.67;2.55;;;;;;;;;;5112994;28;20153;-78
2022/01/28 00:40:32;;;;;;;24.40;3.70;;;;;;;;;;5112790;28;20479;-78
2022/01/28 00:42:58;;;;;;;23.17;3.25;;;;;;;;;;5112885;28;20035;-78
2022/01/28 00:45:25;;;;;;;20.73;2.80;;;;;;;;;;5094199;28;20024;-78
2022/01/28 00:47:51;;;;;;;25.23;2.28;;;;;;;;;;5112609;28;20032;-78
2022/01/28 00:50:17;;;;;;;15.27;2.05;;;;;;;;;;5112319;28;20024;-78
2022/01/28 00:52:43;;;;;;;24.75;2.78;;;;;;;;;;5112655;28;20023;-78
2022/01/28 00:55:10;;;;;;;12.95;2.08;;;;;;;;;;5112559;28;20012;-78
2022/01/28 00:57:36;;;;;;;23.80;3.60;;;;;;;;;;5094377;28;20047;-78
2022/01/28 01:00:04;;;;;;;25.45;2.67;;;;;;;;;;5112616;28;20023;-78
2022/01/28 01:02:30;;;;;;;17.80;2.47;;;;;;;;;;5092135;28;20024;-78
2022/01/28 01:04:56;;;;;;;31.42;3.08;;;;;;;;;;5091955;28;20024;-78
2022/01/28 01:07:23;;;;;;;22.20;2.42;;;;;;;;;;5092001;28;20367;-78
2022/01/28 01:09:49;;;;;;;16.67;2.20;;;;;;;;;;5091879;28;20035;-78
2022/01/28 01:12:19;;;;;;;22.10;3.35;;;;;;;;;;5092146;28;20137;-78
2022/01/28 01:14:45;;;;;;;20.50;2.08;;;;;;;;;;5091843;28;20012;-78
2022/01/28 01:19:52;;;;;;;20.67;2.42;;;;;;;;;;5112440;28;20024;-78
2022/01/28 01:22:19;;;;;;;18.70;3.25;;;;;;;;;;5112144;28;20381;-78
2022/01/28 01:24:51;;;;;;;22.35;3.38;;;;;;;;;;5112245;28;20031;-78
2022/01/28 01:27:19;;;;;;;13.88;2.78;;;;;;;;;;5112333;28;20041;-78
2022/01/28 01:29:46;;;;;;;29.73;3.45;;;;;;;;;;5112167;28;20112;-78
2022/01/28 01:32:15;;;;;;;20.48;3.72;;;;;;;;;;5112210;28;20438;-78
2022/01/28 01:34:42;;;;;;;19.80;2.38;;;;;;;;;;5111832;28;20027;-78
2022/01/28 01:37:09;;;;;;;24.00;2.63;;;;;;;;;;5114248;28;20043;-78
2022/01/28 01:39:36;;;;;;;15.88;2.05;;;;;;;;;;5115784;28;20335;-78
2022/01/28 01:42:15;;;;;;;18.08;3.28;;;;;;;;;;5115640;28;20031;-78
2022/01/28 01:52:52;;;;;;;23.73;2.63;;;;;;;;;;5115545;28;20050;-78
2022/01/28 01:55:18;;;;;;;19.33;2.95;;;;;;;;;;5115609;28;20059;-78
2022/01/28 01:57:45;;;;;;;15.68;2.67;;;;;;;;;;5114942;28;20076;-78
2022/01/28 02:00:12;;;;;;;17.55;1.88;;;;;;;;;;5114815;28;20071;-79
2022/01/28 02:02:38;;;;;;;12.60;1.63;;;;;;;;;;5114991;28;20483;-78
2022/01/28 02:05:04;;;;;;;19.75;1.85;;;;;;;;;;5114710;28;20079;-78
2022/01/28 02:07:31;;;;;;;19.58;1.90;;;;;;;;;;5115267;28;20031;-78
2022/01/28 02:09:57;;;;;;;20.50;1.70;;;;;;;;;;5114567;28;20098;-77
2022/01/28 02:12:23;;;;;;;18.63;2.60;;;;;;;;;;5114760;28;20024;-77
2022/01/28 02:14:49;;;;;;;11.98;2.00;;;;;;;;;;5115140;28;20022;-78
2022/01/28 02:17:15;;;;;;;13.23;2.00;;;;;;;;;;5114801;28;20106;-78
2022/01/28 02:19:41;;;;;;;14.88;2.40;;;;;;;;;;5114759;28;20046;-78
2022/01/28 02:22:08;;;;;;;21.35;2.45;;;;;;;;;;5114981;28;20077;-77
2022/01/28 02:24:41;;;;;;;18.80;1.77;;;;;;;;;;5114670;28;20527;-78
2022/01/28 02:27:09;;;;;;;18.67;2.15;;;;;;;;;;5115313;28;20031;-78
2022/01/28 02:29:36;;;;;;;15.43;2.00;;;;;;;;;;5114762;28;20028;-78
2022/01/28 02:32:04;;;;;;;19.75;2.25;;;;;;;;;;5114877;28;20027;-78
2022/01/28 02:34:33;;;;;;;12.75;2.33;;;;;;;;;;5114943;28;20410;-78
2022/01/28 02:36:59;;;;;;;15.13;3.50;;;;;;;;;;5114625;28;20027;-78
2022/01/28 02:39:25;;;;;;;19.30;1.85;;;;;;;;;;5114805;28;20027;-78
2022/01/28 02:41:58;;;;;;;19.17;2.15;;;;;;;;;;5114849;28;20781;-78
2022/01/28 02:44:42;;;;;;;14.75;1.90;;;;;;;;;;5114542;28;20027;-78
2022/01/28 02:47:12;;;;;;;13.35;1.65;;;;;;;;;;5094284;28;20131;-78
2022/01/28 02:49:39;;;;;;;11.20;1.63;;;;;;;;;;5094037;28;20155;-78
2022/01/28 02:52:05;;;;;;;14.90;2.95;;;;;;;;;;5094078;28;20485;-77
2022/01/28 02:54:39;;;;;;;19.73;3.00;;;;;;;;;;5093969;28;20043;-77
2022/01/28 02:57:06;;;;;;;12.38;1.77;;;;;;;;;;5098903;28;20016;-77
2022/01/28 02:59:32;;;;;;;13.55;1.75;;;;;;;;;;5114277;28;20395;-78
2022/01/28 03:01:58;;;;;;;12.30;1.50;;;;;;;;;;5114363;28;20043;-78
2022/01/28 03:07:09;;;;;;;14.65;2.58;;;;;;;;;;5114275;28;20427;-78
2022/01/28 03:12:30;;;;;;;22.33;1.95;;;;;;;;;;5114165;28;20421;-78
2022/01/28 03:15:04;;;;;;;17.02;1.85;;;;;;;;;;5114038;28;20015;-78
2022/01/28 03:22:53;;;;;;;17.08;2.00;;;;;;;;;;5031200;28;20057;-78
2022/01/28 03:25:19;;;;;;;17.33;2.10;;;;;;;;;;5031182;28;20040;-78
2022/01/28 03:30:14;;;;;;;18.88;2.13;;;;;;;;;;5030866;28;20064;-78
2022/01/28 03:32:40;;;;;;;13.27;2.33;;;;;;;;;;5031170;28;20040;-78
2022/01/28 03:35:06;;;;;;;20.88;2.22;;;;;;;;;;5031163;28;20062;-78
2022/01/28 03:37:32;;;;;;;20.15;2.00;;;;;;;;;;5031075;28;20321;-78
2022/01/28 03:40:00;;;;;;;16.50;2.40;;;;;;;;;;5030863;28;20054;-78
2022/01/28 03:42:26;;;;;;;15.60;2.45;;;;;;;;;;5031150;28;20433;-78
2022/01/28 03:44:52;;;;;;;18.58;1.77;;;;;;;;;;5030710;28;20144;-78
2022/01/28 03:47:18;;;;;;;18.55;2.03;;;;;;;;;;5030779;28;20229;-78
2022/01/28 03:49:44;;;;;;;26.80;2.88;;;;;;;;;;5030979;28;20038;-78
2022/01/28 03:52:10;;;;;;;18.17;2.08;;;;;;;;;;5030803;28;20451;-78
2022/01/28 03:54:36;;;;;;;22.15;2.10;;;;;;;;;;5031089;28;20044;-78
2022/01/28 03:57:04;;;;;;;18.88;2.95;;;;;;;;;;5030552;28;20025;-78
2022/01/28 03:59:30;;;;;;;18.23;2.78;;;;;;;;;;5058928;28;20078;-78
2022/01/28 04:01:56;;;;;;;18.98;2.25;;;;;;;;;;5113367;28;20023;-78
2022/01/28 04:12:39;;;;;;;22.63;2.25;;;;;;;;;;5113450;28;20399;-78
2022/01/28 04:18:06;;;;;;;32.58;3.95;;;;;;;;;;5030013;28;20037;-78
2022/01/28 04:20:32;;;;;;;26.13;2.15;;;;;;;;;;5030117;28;20379;-78
2022/01/28 04:22:58;;;;;;;26.85;2.10;;;;;;;;;;5030183;28;20037;-78
2022/01/28 04:25:24;;;;;;;18.85;2.45;;;;;;;;;;5030319;28;20088;-78
2022/01/28 04:27:50;;;;;;;19.13;2.40;;;;;;;;;;5030222;28;20029;-78
2022/01/28 04:30:16;;;;;;;26.42;3.08;;;;;;;;;;5029989;28;20432;-78
2022/01/28 04:32:42;;;;;;;31.20;2.63;;;;;;;;;;5030126;28;20509;-78
2022/01/28 04:35:10;;;;;;;13.82;2.20;;;;;;;;;;5030216;28;20029;-78
2022/01/28 04:40:28;;;;;;;9.85;1.83;;;;;;;;;;4990591;28;20072;-78
2022/01/28 04:43:06;;;;;;;19.98;2.55;;;;;;;;;;4990794;28;20065;-78
2022/01/28 04:45:51;;;;;;;22.77;2.90;;;;;;;;;;4990886;28;20489;-78
2022/01/28 04:53:51;;;;;;;21.80;4.03;;;;;;;;;;4971262;28;20027;-78
2022/01/28 04:59:22;;;;;;;21.15;2.15;;;;;;;;;;4970909;28;20110;-78
2022/01/28 05:02:24;;;;;;;16.73;1.47;;;;;;;;;;4970788;28;20042;-78
2022/01/28 05:10:25;;;;;;;15.50;1.98;;;;;;;;;;4970744;28;20117;-78
2022/01/28 05:15:47;;;;;;;25.52;2.00;;;;;;;;;;4974826;28;20037;-78
2022/01/28 05:24:08;;;;;;;18.33;1.92;;;;;;;;;;4994133;28;20101;-78
2022/01/28 05:26:34;;;;;;;24.58;2.58;;;;;;;;;;4994010;28;20408;-78
2022/01/28 05:29:01;;;;;;;20.42;2.03;;;;;;;;;;5082765;28;20051;-78
2022/01/28 05:31:27;;;;;;;14.80;2.25;;;;;;;;;;5095630;28;20040;-78
2022/01/28 05:33:53;;;;;;;24.25;3.35;;;;;;;;;;5095850;28;20469;-78
2022/01/28 05:36:20;;;;;;;21.42;2.40;;;;;;;;;;5095717;28;20026;-78
2022/01/28 05:38:46;;;;;;;17.67;1.90;;;;;;;;;;5095552;28;20028;-78
2022/01/28 05:41:13;;;;;;;20.00;2.00;;;;;;;;;;5095670;28;20500;-78
2022/01/28 05:43:39;;;;;;;21.63;1.90;;;;;;;;;;5095631;28;20020;-78
2022/01/28 05:46:07;;;;;;;22.95;2.00;;;;;;;;;;5109141;28;20046;-78
2022/01/28 05:48:33;;;;;;;23.50;3.10;;;;;;;;;;5097252;28;20084;-78
2022/01/28 05:50:59;;;;;;;14.48;2.30;;;;;;;;;;5115901;28;20016;-78
2022/01/28 05:53:25;;;;;;;15.18;2.05;;;;;;;;;;5115815;28;20484;-78
2022/01/28 05:55:52;;;;;;;15.32;2.58;;;;;;;;;;5115893;28;20039;-78
2022/01/28 05:58:19;;;;;;;18.40;1.85;;;;;;;;;;5115763;28;20023;-78
2022/01/28 06:00:45;;;;;;;20.73;1.92;;;;;;;;;;5115828;28;20488;-78
2022/01/28 06:03:11;;;;;;;16.48;2.03;;;;;;;;;;5115766;28;20457;-78
2022/01/28 06:05:37;;;;;;;27.08;2.50;;;;;;;;;;5115463;28;20094;-78
2022/01/28 06:08:03;;;;;;;17.00;2.38;;;;;;;;;;5115525;28;20039;-78
2022/01/28 06:10:29;;;;;;;23.45;3.65;;;;;;;;;;5115380;28;20030;-78
2022/01/28 06:12:55;;;;;;;25.33;2.80;;;;;;;;;;5115206;28;20457;-78
2022/01/28 06:15:21;;;;;;;19.70;3.20;;;;;;;;;;5115504;28;20027;-78
2022/01/28 06:17:47;;;;;;;20.77;3.63;;;;;;;;;;5114573;28;20050;-78
2022/01/28 06:20:19;;;;;;;21.17;2.47;;;;;;;;;;5114404;28;20061;-78
2022/01/28 06:22:45;;;;;;;21.57;2.67;;;;;;;;;;5115038;28;20031;-78
2022/01/28 06:25:13;;;;;;;29.33;3.33;;;;;;;;;;5115019;28;20071;-78
2022/01/28 06:27:39;;;;;;;22.23;2.50;;;;;;;;;;5114894;28;20023;-78
2022/01/28 06:30:06;;;;;;;26.50;3.35;;;;;;;;;;5115399;28;20078;-78
2022/01/28 06:32:33;;;;;;;26.67;5.28;;;;;;;;;;5115131;28;20046;-78
2022/01/28 06:35:07;;;;;;;18.90;3.00;;;;;;;;;;5115102;28;20020;-78
2022/01/28 06:37:33;;;;;;;24.88;2.67;;;;;;;;;;5114795;28;20019;-78
2022/01/28 06:39:59;;;;;;;25.40;3.13;;;;;;;;;;5115215;28;20028;-77
2022/01/28 06:42:25;;;;;;;47.42;4.82;;;;;;;;;;5115579;28;20023;-78
2022/01/28 06:44:51;;;;;;;21.10;2.42;;;;;;;;;;5115125;28;20028;-78
2022/01/28 06:47:18;;;;;;;20.00;2.63;;;;;;;;;;5115061;28;20023;-78
2022/01/28 06:49:44;;;;;;;19.80;2.50;;;;;;;;;;5114869;28;20521;-78
2022/01/28 06:52:10;;;;;;;16.92;1.92;;;;;;;;;;5114951;28;20058;-78
2022/01/28 06:54:36;;;;;;;21.27;1.95;;;;;;;;;;5114781;28;20095;-78
2022/01/28 06:57:02;;;;;;;23.90;2.35;;;;;;;;;;5114945;28;20098;-78
2022/01/28 06:59:28;;;;;;;19.25;2.47;;;;;;;;;;5114773;28;20591;-78
2022/01/28 07:01:54;;;;;;;27.45;2.83;;;;;;;;;;5114761;28;20043;-78
2022/01/28 07:04:20;;;;;;;19.05;2.45;;;;;;;;;;5114446;28;20058;-78
2022/01/28 07:06:46;;;;;;;27.13;2.67;;;;;;;;;;5114652;28;20028;-78
2022/01/28 07:09:12;;;;;;;17.17;2.08;;;;;;;;;;5114422;28;20024;-78
2022/01/28 07:11:39;;;;;;;23.15;2.67;;;;;;;;;;5114621;28;20098;-78
2022/01/28 07:14:05;;;;;;;21.52;2.88;;;;;;;;;;5114446;28;20028;-78
2022/01/28 07:16:31;;;;;;;26.65;3.08;;;;;;;;;;5114316;28;20020;-78
2022/01/28 07:18:57;;;;;;;32.22;2.75;;;;;;;;;;5114262;28;20032;-78
2022/01/28 07:21:23;;;;;;;23.20;3.20;;;;;;;;;;5114319;28;20031;-78
2022/01/28 07:23:49;;;;;;;20.45;2.65;;;;;;;;;;5114223;28;20066;-78
2022/01/28 07:26:15;;;;;;;22.23;3.22;;;;;;;;;;5114004;28;20032;-78
2022/01/28 07:28:42;;;;;;;33.08;2.50;;;;;;;;;;5095775;28;20043;-78
2022/01/28 07:31:10;;;;;;;16.73;3.35;;;;;;;;;;5113960;28;20555;-78
2022/01/28 07:33:36;;;;;;;16.38;2.67;;;;;;;;;;5095066;28;20074;-78
2022/01/28 07:36:02;;;;;;;15.50;2.33;;;;;;;;;;5114212;28;20477;-78
2022/01/28 07:38:28;;;;;;;20.65;2.97;;;;;;;;;;5114012;28;20028;-78
2022/01/28 07:40:57;;;;;;;17.85;3.03;;;;;;;;;;5114174;28;20077;-78
2022/01/28 07:43:23;;;;;;;22.42;2.72;;;;;;;;;;5113982;28;20436;-78
2022/01/28 07:45:49;;;;;;;22.42;2.88;;;;;;;;;;5114205;28;20383;-78
2022/01/28 07:48:15;;;;;;;19.80;2.72;;;;;;;;;;5113789;28;20016;-78
2022/01/28 07:50:41;;;;;;;24.10;2.95;;;;;;;;;;5113906;28;20023;-78
2022/01/28 07:53:09;;;;;;;27.05;3.40;;;;;;;;;;5113959;28;20079;-78
2022/01/28 07:55:35;;;;;;;18.77;3.22;;;;;;;;;;5114298;28;20032;-78
2022/01/28 07:58:01;;;;;;;29.00;3.85;;;;;;;;;;5114003;28;20039;-78
2022/01/28 08:00:27;;;;;;;19.70;3.17;;;;;;;;;;5113786;28;20024;-78
2022/01/28 08:02:53;;;;;;;24.65;3.47;;;;;;;;;;5113819;28;20023;-78
2022/01/28 08:05:20;;;;;;;32.25;3.88;;;;;;;;;;5113874;28;20420;-78
2022/01/28 08:07:47;;;;;;;18.02;3.78;;;;;;;;;;5113805;28;20177;-78
2022/01/28 08:10:16;;;;;;;26.25;5.78;;;;;;;;;;5113473;28;20779;-78
2022/01/28 08:12:49;;;;;;;26.65;5.85;;;;;;;;;;5114002;28;20024;-78
2022/01/28 08:15:15;;;;;;;27.50;6.47;;;;;;;;;;5113767;28;20100;-78
2022/01/28 08:17:41;;;;;;;34.20;6.88;;;;;;;;;;5113300;28;20019;-78
2022/01/28 08:20:08;;;;;;;30.75;6.85;;;;;;;;;;5113211;28;20110;-78
2022/01/28 08:22:43;;;;;;;44.55;8.27;;;;;;;;;;5107205;28;20036;-78
2022/01/28 08:25:09;;;;;;;24.90;6.25;;;;;;;;;;5104979;28;20111;-78
2022/01/28 08:27:35;;;;;;;30.85;7.18;;;;;;;;;;5103901;28;20034;-79
2022/01/28 08:30:01;;;;;;;26.52;6.40;;;;;;;;;;5108078;28;20028;-79
2022/01/28 08:32:27;;;;;;;25.52;6.57;;;;;;;;;;5105293;28;20028;-78
2022/01/28 08:34:54;;;;;;;32.42;7.25;;;;;;;;;;5105009;28;20020;-78
2022/01/28 08:37:20;;;;;;;34.63;6.88;;;;;;;;;;5105984;28;20072;-78
2022/01/28 08:39:46;;;;;;;33.38;6.50;;;;;;;;;;5105120;28;20054;-78
2022/01/28 08:42:14;;;;;;;33.72;7.35;;;;;;;;;;5107221;28;20038;-78
2022/01/28 08:44:40;;;;;;;31.27;6.82;;;;;;;;;;5105018;28;20027;-78
2022/01/28 08:47:06;;;;;;;31.80;5.93;;;;;;;;;;5114793;28;20019;-78
2022/01/28 08:49:33;;;;;;;28.60;5.50;;;;;;;;;;5114098;28;20032;-78
2022/01/28 08:51:59;;;;;;;21.17;6.03;;;;;;;;;;5110428;28;20035;-78
2022/01/28 08:54:25;;;;;;;25.98;4.72;;;;;;;;;;5111191;28;20038;-78
2022/01/28 08:56:51;;;;;;;28.80;6.05;;;;;;;;;;5111562;28;20024;-78
2022/01/28 08:59:17;;;;;;;21.38;5.15;;;;;;;;;;5110361;28;20080;-78
2022/01/28 09:01:43;;;;;;;39.45;5.80;;;;;;;;;;5108092;28;20032;-78
2022/01/28 09:04:09;;;;;;;32.15;4.85;;;;;;;;;;5110484;28;20020;-78
2022/01/28 09:06:35;;;;;;;24.10;4.35;;;;;;;;;;5112963;28;20030;-78
2022/01/28 09:09:02;;;;;;;34.53;6.18;;;;;;;;;;5112149;28;20023;-78
2022/01/28 09:11:32;;;;;;;22.45;4.63;;;;;;;;;;5106126;28;20168;-78
2022/01/28 09:13:59;;;;;;;22.55;3.47;;;;;;;;;;5112251;28;20034;-78
2022/01/28 09:16:25;;;;;;;32.50;3.78;;;;;;;;;;5109815;28;20071;-78
2022/01/28 09:18:51;;;;;;;21.48;3.53;;;;;;;;;;5110930;28;20474;-78
2022/01/28 09:21:19;;;;;;;53.28;5.97;;;;;;;;;;5106513;28;20027;-78
2022/01/28 09:23:46;;;;;;;27.60;2.80;;;;;;;;;;5109216;28;20031;-78
2022/01/28 09:26:13;;;;;;;19.38;3.00;;;;;;;;;;5106989;28;20038;-78
2022/01/28 09:28:39;;;;;;;17.35;2.30;;;;;;;;;;5109396;28;20040;-78
2022/01/28 09:31:05;;;;;;;19.35;3.00;;;;;;;;;;5113359;28;20114;-78
2022/01/28 09:33:31;;;;;;;19.92;2.38;;;;;;;;;;5107626;28;20494;-78
2022/01/28 09:35:57;;;;;;;11.25;1.75;;;;;;;;;;5105082;28;20096;-78
2022/01/28 09:38:23;;;;;;;19.13;3.08;;;;;;;;;;5103864;28;20016;-78
2022/01/28 09:40:50;;;;;;;22.17;2.40;;;;;;;;;;5107396;28;20077;-78
2022/01/28 09:43:16;;;;;;;24.08;2.63;;;;;;;;;;5107386;28;20462;-78
2022/01/28 09:45:42;;;;;;;16.55;2.58;;;;;;;;;;5111529;28;20103;-78
2022/01/28 09:48:08;;;;;;;13.20;2.10;;;;;;;;;;5105463;28;20038;-78
2022/01/28 09:50:34;;;;;;;16.35;2.67;;;;;;;;;;5092075;28;20026;-78
2022/01/28 09:53:01;;;;;;;20.30;2.42;;;;;;;;;;5108076;28;20016;-78
2022/01/28 09:55:27;;;;;;;21.33;2.33;;;;;;;;;;5110548;28;20016;-78
2022/01/28 09:58:02;;;;;;;36.65;8.57;;;;;;;;;;5107302;28;20095;-78
2022/01/28 10:00:29;;;;;;;28.23;5.20;;;;;;;;;;5104463;28;20035;-78
2022/01/28 10:02:58;;;;;;;20.50;2.03;;;;;;;;;;5112393;28;20073;-78
2022/01/28 10:05:28;;;;;;;19.50;2.63;;;;;;;;;;5105584;28;20381;-78
2022/01/28 10:08:01;;;;;;;22.15;2.60;;;;;;;;;;5098132;28;20062;-78
2022/01/28 10:10:40;;;;;;;23.40;3.05;;;;;;;;;;5106367;28;20028;-79
2022/01/28 10:13:11;;;;;;;17.52;4.97;;;;;;;;;;5107059;28;20029;-79
2022/01/28 10:15:51;;;;;;;21.58;3.88;;;;;;;;;;5106591;28;20069;-79
2022/01/28 10:18:17;;;;;;;14.40;2.35;;;;;;;;;;5106516;28;20020;-79
2022/01/28 10:20:44;;;;;;;15.02;2.60;;;;;;;;;;5115241;28;20024;-78
2022/01/28 10:23:12;;;;;;;12.68;2.10;;;;;;;;;;5115317;28;20073;-78
2022/01/28 10:25:38;;;;;;;14.02;2.20;;;;;;;;;;5109331;28;20069;-79
2022/01/28 10:28:12;;;;;;;17.83;2.53;;;;;;;;;;5095120;28;20025;-79
2022/01/28 10:30:42;;;;;;;17.55;2.13;;;;;;;;;;5108081;28;20389;-79
2022/01/28 10:33:15;;;;;;;15.55;1.98;;;;;;;;;;5108853;28;20028;-78
2022/01/28 10:35:55;;;;;;;14.35;1.98;;;;;;;;;;5103402;28;20073;-79
2022/01/28 10:38:47;;;;;;;12.40;1.85;;;;;;;;;;5109906;28;20031;-78
2022/01/28 10:41:26;;;;;;;21.20;2.35;;;;;;;;;;5093528;28;20047;-78
2022/01/28 10:43:56;;;;;;;27.88;2.60;;;;;;;;;;5095069;28;20028;-78
2022/01/28 10:46:23;;;;;;;22.00;2.25;;;;;;;;;;5110737;28;20024;-79
2022/01/28 10:48:56;;;;;;;17.85;2.85;;;;;;;;;;5115500;28;20050;-79
2022/01/28 10:51:35;;;;;;;17.98;2.47;;;;;;;;;;5096888;28;20377;-79
2022/01/28 10:54:11;;;;;;;14.23;2.58;;;;;;;;;;5095221;28;20031;-78
2022/01/28 10:56:47;;;;;;;16.15;2.05;;;;;;;;;;5114953;28;20441;-79
2022/01/28 10:59:15;;;;;;;19.20;2.90;;;;;;;;;;5113342;28;20102;-79
2022/01/28 11:01:42;;;;;;;15.07;2.28;;;;;;;;;;5113754;28;20016;-79
2022/01/28 11:04:08;;;;;;;19.95;2.53;;;;;;;;;;5101313;28;20370;-79
2022/01/28 11:06:34;;;;;;;14.73;2.38;;;;;;;;;;5097789;28;20477;-79
2022/01/28 11:09:01;;;;;;;18.42;2.20;;;;;;;;;;5110512;28;20036;-79
2022/01/28 11:11:27;;;;;;;17.88;2.20;;;;;;;;;;5109667;28;20027;-79
2022/01/28 11:13:53;;;;;;;12.18;2.28;;;;;;;;;;5104328;28;20028;-78
2022/01/28 11:16:19;;;;;;;16.48;2.03;;;;;;;;;;5114321;28;20030;-79
2022/01/28 11:18:46;;;;;;;15.23;2.15;;;;;;;;;;5114865;28;20366;-79
2022/01/28 11:21:16;;;;;;;11.15;1.60;;;;;;;;;;5114455;28;20027;-79
2022/01/28 11:23:43;;;;;;;17.08;2.08;;;;;;;;;;5110534;28;20073;-79
2022/01/28 11:26:27;;;;;;;16.58;2.10;;;;;;;;;;5097038;28;20028;-79
2022/01/28 11:28:57;;;;;;;16.95;2.17;;;;;;;;;;5103849;28;20054;-79
2022/01/28 11:31:42;;;;;;;23.17;2.80;;;;;;;;;;5114110;28;20533;-79
2022/01/28 11:34:15;;;;;;;13.20;2.08;;;;;;;;;;5109303;28;20103;-80
2022/01/28 11:36:41;;;;;;;15.88;1.70;;;;;;;;;;5105533;28;20034;-79
2022/01/28 11:39:25;;;;;;;14.15;2.05;;;;;;;;;;5113510;28;20027;-79
2022/01/28 11:42:17;;;;;;;15.65;1.92;;;;;;;;;;5113364;28;20034;-78
2022/01/28 11:44:43;;;;;;;12.63;1.88;;;;;;;;;;5102577;28;20412;-79
2022/01/28 11:47:11;;;;;;;22.90;2.63;;;;;;;;;;5112961;28;20372;-79
2022/01/28 11:49:53;;;;;;;14.77;1.80;;;;;;;;;;5102821;28;20028;-79
2022/01/28 11:52:32;;;;;;;13.15;1.88;;;;;;;;;;5110744;28;20080;-80
2022/01/28 11:55:17;;;;;;;13.13;1.63;;;;;;;;;;5107969;28;20107;-80
2022/01/28 11:58:01;;;;;;;18.42;2.00;;;;;;;;;;5110492;28;20027;-79
2022/01/28 12:00:33;;;;;;;20.27;2.28;;;;;;;;;;5105303;28;20023;-80
2022/01/28 12:03:00;;;;;;;13.00;1.70;;;;;;;;;;5109990;28;20522;-80
2022/01/28 12:05:26;;;;;;;19.60;2.13;;;;;;;;;;5096321;28;20032;-80
2022/01/28 12:07:54;;;;;;;16.75;2.33;;;;;;;;;;5093521;28;20028;-80
2022/01/28 12:10:20;;;;;;;19.23;1.67;;;;;;;;;;5093902;28;20027;-83
2022/01/28 12:12:56;;;;;;;18.00;2.10;;;;;;;;;;5075327;28;20461;-82
2022/01/28 12:15:24;;;;;;;12.40;1.52;;;;;;;;;;5074833;28;20051;-82
2022/01/28 12:17:50;;;;;;;18.75;2.60;;;;;;;;;;5110953;28;20488;-82
2022/01/28 12:20:18;;;;;;;14.02;2.15;;;;;;;;;;5113096;28;20024;-83
2022/01/28 12:23:00;;;;;;;17.08;2.08;;;;;;;;;;5113311;28;20027;-83
2022/01/28 12:25:41;;;;;;;20.07;2.43;;;;;;;;;;5113481;28;20020;-82
2022/01/28 12:28:13;;;;;;;9.73;1.80;;;;;;;;;;5113571;28;20273;-82
2022/01/28 12:30:43;;;;;;;15.40;2.30;;;;;;;;;;5112759;28;20086;-83
2022/01/28 12:33:10;;;;;;;11.30;2.22;;;;;;;;;;5113195;28;20032;-83
2022/01/28 12:35:40;;;;;;;16.20;1.85;;;;;;;;;;5113512;28;20020;-83
2022/01/28 12:38:06;;;;;;;14.88;2.22;;;;;;;;;;5113280;28;20027;-83
2022/01/28 12:40:36;;;;;;;15.15;2.83;;;;;;;;;;5094944;28;20028;-82
2022/01/28 12:43:06;;;;;;;17.15;2.20;;;;;;;;;;5113124;28;20669;-82
2022/01/28 12:45:32;;;;;;;16.17;2.90;;;;;;;;;;5113165;28;20027;-83
2022/01/28 12:47:58;;;;;;;17.23;2.10;;;;;;;;;;5113266;28;20035;-83
2022/01/28 12:50:24;;;;;;;10.75;2.20;;;;;;;;;;5113021;28;20496;-82
2022/01/28 12:52:51;;;;;;;13.32;1.85;;;;;;;;;;5112865;28;20126;-82
2022/01/28 12:55:17;;;;;;;13.93;1.90;;;;;;;;;;5113326;28;20020;-82
2022/01/28 12:57:44;;;;;;;14.35;2.88;;;;;;;;;;5113096;28;20030;-82
2022/01/28 13:00:11;;;;;;;11.90;1.80;;;;;;;;;;5113049;28;20023;-82
2022/01/28 13:02:37;;;;;;;15.80;1.92;;;;;;;;;;5109777;28;20106;-82
2022/01/28 13:10:28;;;;;;;12.93;1.75;;;;;;;;;;5092816;28;20059;-82
2022/01/28 13:13:05;;;;;;;14.45;1.70;;;;;;;;;;5092425;28;20592;-82
2022/01/28 13:15:31;;;;;;;13.30;1.98;;;;;;;;;;5074306;28;20017;-82
2022/01/28 13:17:59;;;;;;;10.68;1.40;;;;;;;;;;5097608;28;20024;-82
2022/01/28 13:20:25;;;;;;;14.98;1.92;;;;;;;;;;5092755;28;20024;-82
2022/01/28 13:22:53;;;;;;;13.48;1.40;;;;;;;;;;5093358;28;20034;-81
2022/01/28 13:25:23;;;;;;;9.45;1.80;;;;;;;;;;5075457;28;20073;-82
2022/01/28 13:27:54;;;;;;;17.42;1.63;;;;;;;;;;5092433;28;20024;-82
2022/01/28 13:30:20;;;;;;;11.57;1.45;;;;;;;;;;5092627;28;20028;-80
2022/01/28 13:32:50;;;;;;;15.38;2.03;;;;;;;;;;5093796;28;20040;-81
2022/01/28 13:35:21;;;;;;;10.65;1.48;;;;;;;;;;5061617;28;20020;-84
2022/01/28 13:37:48;;;;;;;11.65;1.58;;;;;;;;;;5077990;28;20359;-82
2022/01/28 13:40:29;;;;;;;20.70;3.20;;;;;;;;;;5096643;28;20117;-84
2022/01/28 13:42:59;;;;;;;13.20;1.40;;;;;;;;;;5096699;28;20085;-81
2022/01/28 13:45:34;;;;;;;16.73;2.45;;;;;;;;;;5104333;28;20019;-82
2022/01/28 13:48:02;;;;;;;10.73;1.23;;;;;;;;;;5116897;28;20026;-82
2022/01/28 13:50:29;;;;;;;7.47;1.00;;;;;;;;;;5116450;28;20026;-84
2022/01/28 13:55:49;;;;;;;13.77;1.65;;;;;;;;;;5100773;28;20036;-83
2022/01/28 13:58:15;;;;;;;7.00;1.70;;;;;;;;;;5112595;28;20439;-81
2022/01/28 14:00:43;;;;;;;9.35;1.50;;;;;;;;;;5116451;28;20027;-84
2022/01/28 14:03:16;;;;;;;12.35;1.50;;;;;;;;;;5115576;28;20016;-82
2022/01/28 14:05:52;;;;;;;9.20;1.90;;;;;;;;;;5095730;28;20024;-81
2022/01/28 14:08:38;;;;;;;10.93;1.63;;;;;;;;;;5095088;28;20435;-81
2022/01/28 14:11:24;;;;;;;9.00;1.63;;;;;;;;;;5095307;28;20489;-80
2022/01/28 14:14:11;;;;;;;13.60;1.75;;;;;;;;;;5095511;28;20035;-80
2022/01/28 14:16:37;;;;;;;12.25;1.90;;;;;;;;;;5103151;28;20019;-83
2022/01/28 14:19:04;;;;;;;15.90;1.80;;;;;;;;;;5116441;28;20027;-84
2022/01/28 14:21:30;;;;;;;11.50;2.25;;;;;;;;;;5116150;28;20070;-83
2022/01/28 14:23:56;;;;;;;8.93;1.98;;;;;;;;;;5115956;28;20381;-84
2022/01/28 14:26:22;;;;;;;21.52;2.10;;;;;;;;;;5115831;28;20020;-84
2022/01/28 14:31:17;;;;;;;11.25;2.17;;;;;;;;;;5098674;28;20122;-85
2022/01/28 14:33:45;;;;;;;14.68;1.98;;;;;;;;;;5115426;28;20043;-84
2022/01/28 14:36:11;;;;;;;13.23;2.53;;;;;;;;;;5097316;28;20184;-82
2022/01/28 14:38:37;;;;;;;19.73;2.15;;;;;;;;;;5114671;28;20856;-82
2022/01/28 14:41:03;;;;;;;20.33;2.60;;;;;;;;;;5114928;28;20377;-82
2022/01/28 14:43:29;;;;;;;13.52;2.30;;;;;;;;;;5095089;28;20120;-82
2022/01/28 14:45:55;;;;;;;15.25;2.60;;;;;;;;;;5101875;28;20024;-81
2022/01/28 14:48:22;;;;;;;18.83;2.97;;;;;;;;;;5095225;28;20424;-81
2022/01/28 14:50:49;;;;;;;13.98;2.50;;;;;;;;;;5094707;28;20020;-81
2022/01/28 14:53:15;;;;;;;22.98;3.92;;;;;;;;;;5095049;28;20027;-81
2022/01/28 14:55:42;;;;;;;21.10;3.33;;;;;;;;;;5094419;28;20491;-82
2022/01/28 14:58:08;;;;;;;16.42;2.63;;;;;;;;;;5097189;28;20081;-82
2022/01/28 15:00:35;;;;;;;18.52;2.97;;;;;;;;;;5109081;28;20020;-82
2022/01/28 15:03:01;;;;;;;20.02;3.00;;;;;;;;;;5093582;28;20031;-82
2022/01/28 15:05:28;;;;;;;11.60;2.40;;;;;;;;;;5099439;28;20381;-82
2022/01/28 15:07:54;;;;;;;12.63;3.10;;;;;;;;;;5109161;28;20023;-82
2022/01/28 15:10:27;;;;;;;21.88;3.25;;;;;;;;;;5099808;28;20028;-82
2022/01/28 15:12:53;;;;;;;14.60;2.92;;;;;;;;;;5109784;28;20559;-82
2022/01/28 15:15:19;;;;;;;19.73;3.80;;;;;;;;;;5110696;28;20015;-82
2022/01/28 15:17:45;;;;;;;18.75;3.22;;;;;;;;;;5114779;28;20080;-82
2022/01/28 15:20:12;;;;;;;19.05;3.55;;;;;;;;;;5115084;28;20028;-81
2022/01/28 15:22:38;;;;;;;20.45;3.83;;;;;;;;;;5083785;28;20039;-82
2022/01/28 15:25:04;;;;;;;21.83;4.13;;;;;;;;;;5105754;28;20040;-85
2022/01/28 15:27:33;;;;;;;20.17;4.05;;;;;;;;;;5114896;28;20019;-79
2022/01/28 15:37:37;;;;;;;12.82;3.58;;;;;;;;;;5114715;28;20134;-80
2022/01/28 15:40:03;;;;;;;18.15;3.58;;;;;;;;;;5095649;28;20027;-82
2022/01/28 15:42:29;;;;;;;18.38;3.92;;;;;;;;;;5093975;28;20070;-80
2022/01/28 15:44:56;;;;;;;18.35;4.53;;;;;;;;;;5104589;28;20364;-80
2022/01/28 15:47:22;;;;;;;20.15;3.58;;;;;;;;;;5114125;28;20023;-80
2022/01/28 15:49:48;;;;;;;20.83;4.03;;;;;;;;;;5105003;28;20031;-80
2022/01/28 15:52:15;;;;;;;16.55;3.40;;;;;;;;;;5080065;28;20061;-80
2022/01/28 15:54:41;;;;;;;18.45;3.95;;;;;;;;;;5099905;28;20027;-80
2022/01/28 15:57:08;;;;;;;24.08;3.85;;;;;;;;;;5075558;28;20078;-80
2022/01/28 15:59:34;;;;;;;13.80;3.53;;;;;;;;;;5099496;28;20039;-80
2022/01/28 16:02:00;;;;;;;18.33;3.80;;;;;;;;;;5114091;28;20024;-80
2022/01/28 16:04:26;;;;;;;16.08;3.60;;;;;;;;;;5110627;28;20114;-80
2022/01/28 16:06:53;;;;;;;22.85;3.88;;;;;;;;;;5100823;28;20461;-80
2022/01/28 16:09:19;;;;;;;19.13;3.30;;;;;;;;;;5100337;28;20031;-80
2022/01/28 16:11:50;;;;;;;19.48;3.53;;;;;;;;;;5102744;28;20403;-80
2022/01/28 16:14:19;;;;;;;19.33;2.70;;;;;;;;;;5107415;28;20024;-80
2022/01/28 16:19:32;;;;;;;16.77;3.75;;;;;;;;;;5097535;28;20108;-79